sensor_id;sensor_type;location;lat;lon;timestamp;P1;durP1;ratioP1;P2;durP2;ratioP2
65998;SDS011;52766;56.008;37.440;2023-05-10T00:01:08;11.95;;;7.40;;
65998;SDS011;52766;56.008;37.440;2023-05-10T00:03:34;14.77;;;6.20;;
65998;SDS011;52766;56.008;37.440;2023-05-10T00:06:05;15.10;;;6.57;;
65998;SDS011;52766;56.008;37.440;2023-05-10T00:08:31;13.75;;;6.35;;
65998;SDS011;52766;56.008;37.440;2023-05-10T00:10:57;15.95;;;6.82;;
65998;SDS011;52766;56.008;37.440;2023-05-10T00:13:23;9.73;;;4.88;;
65998;SDS011;52766;56.008;37.440;2023-05-10T00:15:50;11.73;;;5.45;;
65998;SDS011;52766;56.008;37.440;2023-05-10T00:18:16;13.50;;;5.28;;
65998;SDS011;52766;56.008;37.440;2023-05-10T00:20:42;10.20;;;5.03;;
65998;SDS011;52766;56.008;37.440;2023-05-10T00:23:08;10.77;;;5.32;;
65998;SDS011;52766;56.008;37.440;2023-05-10T00:25:34;10.65;;;4.82;;
65998;SDS011;52766;56.008;37.440;2023-05-10T00:27:59;12.70;;;5.22;;
65998;SDS011;52766;56.008;37.440;2023-05-10T00:30:27;12.40;;;5.55;;
65998;SDS011;52766;56.008;37.440;2023-05-10T00:32:54;11.75;;;4.95;;
65998;SDS011;52766;56.008;37.440;2023-05-10T00:35:20;15.48;;;6.28;;
65998;SDS011;52766;56.008;37.440;2023-05-10T00:37:48;12.15;;;5.38;;
65998;SDS011;52766;56.008;37.440;2023-05-10T00:40:14;18.70;;;7.30;;
65998;SDS011;52766;56.008;37.440;2023-05-10T00:42:44;18.92;;;7.88;;
65998;SDS011;52766;56.008;37.440;2023-05-10T00:45:09;19.80;;;9.57;;
65998;SDS011;52766;56.008;37.440;2023-05-10T00:47:37;21.92;;;9.40;;
65998;SDS011;52766;56.008;37.440;2023-05-10T00:50:04;23.13;;;9.57;;
65998;SDS011;52766;56.008;37.440;2023-05-10T00:52:30;28.52;;;9.40;;
65998;SDS011;52766;56.008;37.440;2023-05-10T00:54:58;16.40;;;8.25;;
65998;SDS011;52766;56.008;37.440;2023-05-10T00:57:24;21.55;;;8.38;;
65998;SDS011;52766;56.008;37.440;2023-05-10T00:59:50;19.30;;;8.23;;
65998;SDS011;52766;56.008;37.440;2023-05-10T01:02:18;10.88;;;6.38;;
65998;SDS011;52766;56.008;37.440;2023-05-10T01:04:45;14.82;;;6.63;;
65998;SDS011;52766;56.008;37.440;2023-05-10T01:07:11;12.90;;;6.47;;
65998;SDS011;52766;56.008;37.440;2023-05-10T01:09:37;17.33;;;7.72;;
65998;SDS011;52766;56.008;37.440;2023-05-10T01:12:04;14.52;;;6.53;;
65998;SDS011;52766;56.008;37.440;2023-05-10T01:14:32;14.38;;;7.22;;
65998;SDS011;52766;56.008;37.440;2023-05-10T01:16:59;10.13;;;4.97;;
65998;SDS011;52766;56.008;37.440;2023-05-10T01:19:26;8.27;;;3.92;;
65998;SDS011;52766;56.008;37.440;2023-05-10T01:27:35;5.75;;;2.67;;
65998;SDS011;52766;56.008;37.440;2023-05-10T01:32:56;8.40;;;2.97;;
65998;SDS011;52766;56.008;37.440;2023-05-10T01:35:42;8.55;;;4.00;;
65998;SDS011;52766;56.008;37.440;2023-05-10T01:38:22;5.82;;;2.80;;
65998;SDS011;52766;56.008;37.440;2023-05-10T01:43:53;8.65;;;3.53;;
65998;SDS011;52766;56.008;37.440;2023-05-10T01:46:28;5.82;;;2.42;;
65998;SDS011;52766;56.008;37.440;2023-05-10T01:49:08;6.30;;;2.97;;
65998;SDS011;52766;56.008;37.440;2023-05-10T01:51:38;7.00;;;2.92;;
65998;SDS011;52766;56.008;37.440;2023-05-10T01:54:07;7.05;;;3.70;;
65998;SDS011;52766;56.008;37.440;2023-05-10T01:56:34;9.48;;;4.30;;
65998;SDS011;52766;56.008;37.440;2023-05-10T01:59:02;10.57;;;4.18;;
65998;SDS011;52766;56.008;37.440;2023-05-10T02:01:32;10.38;;;4.47;;
65998;SDS011;52766;56.008;37.440;2023-05-10T02:03:59;7.57;;;3.13;;
65998;SDS011;52766;56.008;37.440;2023-05-10T02:06:26;14.88;;;6.35;;
65998;SDS011;52766;56.008;37.440;2023-05-10T02:08:52;12.63;;;5.63;;
65998;SDS011;52766;56.008;37.440;2023-05-10T02:11:20;13.60;;;6.90;;
65998;SDS011;52766;56.008;37.440;2023-05-10T02:13:49;13.93;;;6.22;;
65998;SDS011;52766;56.008;37.440;2023-05-10T02:16:16;10.27;;;4.78;;
65998;SDS011;52766;56.008;37.440;2023-05-10T02:18:43;10.18;;;5.40;;
65998;SDS011;52766;56.008;37.440;2023-05-10T02:21:10;10.52;;;4.43;;
65998;SDS011;52766;56.008;37.440;2023-05-10T02:23:38;9.15;;;4.43;;
65998;SDS011;52766;56.008;37.440;2023-05-10T02:26:06;10.85;;;4.90;;
65998;SDS011;52766;56.008;37.440;2023-05-10T02:28:35;9.70;;;5.03;;
65998;SDS011;52766;56.008;37.440;2023-05-10T02:31:03;10.00;;;5.32;;
65998;SDS011;52766;56.008;37.440;2023-05-10T02:33:32;11.25;;;4.90;;
65998;SDS011;52766;56.008;37.440;2023-05-10T02:35:59;10.32;;;4.90;;
65998;SDS011;52766;56.008;37.440;2023-05-10T02:38:26;8.73;;;3.78;;
65998;SDS011;52766;56.008;37.440;2023-05-10T02:40:54;17.75;;;4.75;;
65998;SDS011;52766;56.008;37.440;2023-05-10T02:43:22;9.20;;;4.60;;
65998;SDS011;52766;56.008;37.440;2023-05-10T02:45:49;12.02;;;5.18;;
65998;SDS011;52766;56.008;37.440;2023-05-10T02:48:15;14.38;;;5.40;;
65998;SDS011;52766;56.008;37.440;2023-05-10T02:50:42;13.48;;;5.63;;
65998;SDS011;52766;56.008;37.440;2023-05-10T02:53:15;12.90;;;6.03;;
65998;SDS011;52766;56.008;37.440;2023-05-10T02:55:41;14.57;;;6.15;;
65998;SDS011;52766;56.008;37.440;2023-05-10T02:58:12;12.23;;;5.25;;
65998;SDS011;52766;56.008;37.440;2023-05-10T03:00:39;8.57;;;4.38;;
65998;SDS011;52766;56.008;37.440;2023-05-10T03:03:06;10.75;;;4.78;;
65998;SDS011;52766;56.008;37.440;2023-05-10T03:05:33;11.95;;;6.00;;
65998;SDS011;52766;56.008;37.440;2023-05-10T03:08:04;13.18;;;5.50;;
65998;SDS011;52766;56.008;37.440;2023-05-10T03:10:32;9.48;;;4.75;;
65998;SDS011;52766;56.008;37.440;2023-05-10T03:20:57;8.95;;;4.00;;
65998;SDS011;52766;56.008;37.440;2023-05-10T03:23:28;7.72;;;4.03;;
65998;SDS011;52766;56.008;37.440;2023-05-10T03:26:01;10.35;;;4.57;;
65998;SDS011;52766;56.008;37.440;2023-05-10T03:28:31;11.20;;;4.05;;
65998;SDS011;52766;56.008;37.440;2023-05-10T03:30:59;9.35;;;4.65;;
65998;SDS011;52766;56.008;37.440;2023-05-10T03:33:26;9.60;;;3.80;;
65998;SDS011;52766;56.008;37.440;2023-05-10T03:35:52;9.68;;;4.35;;
65998;SDS011;52766;56.008;37.440;2023-05-10T03:38:20;13.20;;;5.43;;
65998;SDS011;52766;56.008;37.440;2023-05-10T03:40:48;13.77;;;5.97;;
65998;SDS011;52766;56.008;37.440;2023-05-10T03:43:18;11.82;;;5.32;;
65998;SDS011;52766;56.008;37.440;2023-05-10T03:45:44;11.00;;;4.28;;
65998;SDS011;52766;56.008;37.440;2023-05-10T03:48:10;9.88;;;4.22;;
65998;SDS011;52766;56.008;37.440;2023-05-10T03:50:41;11.63;;;5.00;;
65998;SDS011;52766;56.008;37.440;2023-05-10T03:53:12;10.95;;;5.38;;
65998;SDS011;52766;56.008;37.440;2023-05-10T03:55:39;11.00;;;4.63;;
65998;SDS011;52766;56.008;37.440;2023-05-10T03:58:05;11.82;;;4.45;;
65998;SDS011;52766;56.008;37.440;2023-05-10T04:00:37;10.05;;;4.82;;
65998;SDS011;52766;56.008;37.440;2023-05-10T04:03:09;12.25;;;5.75;;
65998;SDS011;52766;56.008;37.440;2023-05-10T04:05:47;10.98;;;4.50;;
65998;SDS011;52766;56.008;37.440;2023-05-10T04:08:13;10.57;;;4.60;;
65998;SDS011;52766;56.008;37.440;2023-05-10T04:10:42;10.80;;;4.55;;
65998;SDS011;52766;56.008;37.440;2023-05-10T04:13:14;10.52;;;4.40;;
65998;SDS011;52766;56.008;37.440;2023-05-10T04:15:41;10.55;;;4.50;;
65998;SDS011;52766;56.008;37.440;2023-05-10T04:18:09;11.15;;;4.15;;
65998;SDS011;52766;56.008;37.440;2023-05-10T04:20:37;11.07;;;4.88;;
65998;SDS011;52766;56.008;37.440;2023-05-10T04:23:09;10.65;;;4.20;;
65998;SDS011;52766;56.008;37.440;2023-05-10T04:25:38;9.07;;;4.05;;
65998;SDS011;52766;56.008;37.440;2023-05-10T04:28:07;9.85;;;4.95;;
65998;SDS011;52766;56.008;37.440;2023-05-10T04:30:34;11.05;;;4.50;;
65998;SDS011;52766;56.008;37.440;2023-05-10T04:33:04;8.68;;;4.53;;
65998;SDS011;52766;56.008;37.440;2023-05-10T04:35:32;15.95;;;5.15;;
65998;SDS011;52766;56.008;37.440;2023-05-10T04:38:01;8.35;;;4.30;;
65998;SDS011;52766;56.008;37.440;2023-05-10T04:40:30;14.48;;;4.85;;
65998;SDS011;52766;56.008;37.440;2023-05-10T04:43:22;12.60;;;4.65;;
65998;SDS011;52766;56.008;37.440;2023-05-10T04:45:48;11.25;;;4.20;;
65998;SDS011;52766;56.008;37.440;2023-05-10T04:48:16;8.85;;;4.18;;
65998;SDS011;52766;56.008;37.440;2023-05-10T04:50:44;11.75;;;4.82;;
65998;SDS011;52766;56.008;37.440;2023-05-10T04:53:14;11.95;;;4.45;;
65998;SDS011;52766;56.008;37.440;2023-05-10T04:55:41;14.32;;;4.32;;
65998;SDS011;52766;56.008;37.440;2023-05-10T04:58:09;11.68;;;4.25;;
65998;SDS011;52766;56.008;37.440;2023-05-10T05:00:38;11.40;;;3.83;;
65998;SDS011;52766;56.008;37.440;2023-05-10T05:03:10;10.25;;;3.95;;
65998;SDS011;52766;56.008;37.440;2023-05-10T05:05:44;9.45;;;4.22;;
65998;SDS011;52766;56.008;37.440;2023-05-10T05:08:17;9.80;;;4.72;;
65998;SDS011;52766;56.008;37.440;2023-05-10T05:10:47;9.48;;;3.97;;
65998;SDS011;52766;56.008;37.440;2023-05-10T05:13:18;7.07;;;3.22;;
65998;SDS011;52766;56.008;37.440;2023-05-10T05:15:50;9.77;;;3.70;;
65998;SDS011;52766;56.008;37.440;2023-05-10T05:18:21;9.27;;;3.15;;
65998;SDS011;52766;56.008;37.440;2023-05-10T05:20:53;4.60;;;2.75;;
65998;SDS011;52766;56.008;37.440;2023-05-10T05:23:23;7.22;;;3.22;;
65998;SDS011;52766;56.008;37.440;2023-05-10T05:25:53;8.57;;;3.17;;
65998;SDS011;52766;56.008;37.440;2023-05-10T05:28:20;8.98;;;3.40;;
65998;SDS011;52766;56.008;37.440;2023-05-10T05:30:50;6.07;;;2.97;;
65998;SDS011;52766;56.008;37.440;2023-05-10T05:33:19;6.65;;;2.78;;
65998;SDS011;52766;56.008;37.440;2023-05-10T05:35:47;6.55;;;2.22;;
65998;SDS011;52766;56.008;37.440;2023-05-10T05:38:24;8.50;;;2.80;;
65998;SDS011;52766;56.008;37.440;2023-05-10T05:41:04;7.75;;;2.70;;
65998;SDS011;52766;56.008;37.440;2023-05-10T05:43:41;6.03;;;3.00;;
65998;SDS011;52766;56.008;37.440;2023-05-10T05:46:35;3.55;;;1.70;;
65998;SDS011;52766;56.008;37.440;2023-05-10T05:49:06;4.47;;;2.33;;
65998;SDS011;52766;56.008;37.440;2023-05-10T05:54:08;5.53;;;2.20;;
65998;SDS011;52766;56.008;37.440;2023-05-10T05:59:06;6.00;;;2.63;;
65998;SDS011;52766;56.008;37.440;2023-05-10T06:01:37;3.58;;;2.08;;
65998;SDS011;52766;56.008;37.440;2023-05-10T06:04:06;5.60;;;2.30;;
65998;SDS011;52766;56.008;37.440;2023-05-10T06:06:36;4.65;;;2.13;;
65998;SDS011;52766;56.008;37.440;2023-05-10T06:09:04;6.95;;;2.67;;
65998;SDS011;52766;56.008;37.440;2023-05-10T06:11:33;4.85;;;2.55;;
65998;SDS011;52766;56.008;37.440;2023-05-10T06:16:31;4.30;;;2.35;;
65998;SDS011;52766;56.008;37.440;2023-05-10T06:18:58;4.70;;;1.98;;
65998;SDS011;52766;56.008;37.440;2023-05-10T06:21:24;4.97;;;2.08;;
65998;SDS011;52766;56.008;37.440;2023-05-10T06:24:01;4.97;;;2.63;;
65998;SDS011;52766;56.008;37.440;2023-05-10T06:26:29;5.25;;;3.05;;
65998;SDS011;52766;56.008;37.440;2023-05-10T06:29:21;4.38;;;2.28;;
65998;SDS011;52766;56.008;37.440;2023-05-10T06:31:53;5.22;;;2.00;;
65998;SDS011;52766;56.008;37.440;2023-05-10T06:34:19;6.05;;;2.25;;
65998;SDS011;52766;56.008;37.440;2023-05-10T06:36:49;6.65;;;2.40;;
65998;SDS011;52766;56.008;37.440;2023-05-10T06:39:47;6.15;;;2.28;;
65998;SDS011;52766;56.008;37.440;2023-05-10T06:42:28;6.80;;;2.63;;
65998;SDS011;52766;56.008;37.440;2023-05-10T06:44:58;8.05;;;2.53;;
65998;SDS011;52766;56.008;37.440;2023-05-10T06:47:33;5.72;;;2.10;;
65998;SDS011;52766;56.008;37.440;2023-05-10T06:50:09;6.25;;;2.30;;
65998;SDS011;52766;56.008;37.440;2023-05-10T06:52:38;4.65;;;2.35;;
65998;SDS011;52766;56.008;37.440;2023-05-10T06:55:18;4.97;;;1.98;;
65998;SDS011;52766;56.008;37.440;2023-05-10T06:57:46;6.63;;;2.40;;
65998;SDS011;52766;56.008;37.440;2023-05-10T07:00:18;5.85;;;2.83;;
65998;SDS011;52766;56.008;37.440;2023-05-10T07:03:11;5.50;;;2.95;;
65998;SDS011;52766;56.008;37.440;2023-05-10T07:05:39;7.32;;;2.60;;
65998;SDS011;52766;56.008;37.440;2023-05-10T07:08:20;6.20;;;2.80;;
65998;SDS011;52766;56.008;37.440;2023-05-10T07:10:53;7.97;;;2.70;;
65998;SDS011;52766;56.008;37.440;2023-05-10T07:13:39;6.28;;;2.28;;
65998;SDS011;52766;56.008;37.440;2023-05-10T07:16:17;6.40;;;2.45;;
65998;SDS011;52766;56.008;37.440;2023-05-10T07:18:43;7.75;;;2.30;;
65998;SDS011;52766;56.008;37.440;2023-05-10T07:21:57;5.28;;;2.03;;
65998;SDS011;52766;56.008;37.440;2023-05-10T07:24:26;4.80;;;2.28;;
65998;SDS011;52766;56.008;37.440;2023-05-10T07:26:53;7.05;;;2.78;;
65998;SDS011;52766;56.008;37.440;2023-05-10T07:29:24;9.30;;;3.20;;
65998;SDS011;52766;56.008;37.440;2023-05-10T07:31:52;11.30;;;2.45;;
65998;SDS011;52766;56.008;37.440;2023-05-10T07:34:19;7.57;;;2.90;;
65998;SDS011;52766;56.008;37.440;2023-05-10T07:37:04;9.18;;;2.50;;
65998;SDS011;52766;56.008;37.440;2023-05-10T07:39:32;7.30;;;2.53;;
65998;SDS011;52766;56.008;37.440;2023-05-10T07:42:03;4.57;;;2.30;;
65998;SDS011;52766;56.008;37.440;2023-05-10T07:44:35;6.32;;;2.22;;
65998;SDS011;52766;56.008;37.440;2023-05-10T07:47:07;6.80;;;2.58;;
65998;SDS011;52766;56.008;37.440;2023-05-10T07:49:48;5.50;;;3.08;;
65998;SDS011;52766;56.008;37.440;2023-05-10T07:52:15;6.68;;;2.47;;
65998;SDS011;52766;56.008;37.440;2023-05-10T07:54:47;6.10;;;2.65;;
65998;SDS011;52766;56.008;37.440;2023-05-10T07:57:22;7.53;;;2.78;;
65998;SDS011;52766;56.008;37.440;2023-05-10T07:59:49;7.05;;;2.40;;
65998;SDS011;52766;56.008;37.440;2023-05-10T08:02:18;4.03;;;1.80;;
65998;SDS011;52766;56.008;37.440;2023-05-10T08:04:52;4.03;;;1.80;;
65998;SDS011;52766;56.008;37.440;2023-05-10T08:07:19;4.10;;;1.80;;
65998;SDS011;52766;56.008;37.440;2023-05-10T08:09:58;3.65;;;1.42;;
65998;SDS011;52766;56.008;37.440;2023-05-10T08:12:32;4.53;;;1.80;;
65998;SDS011;52766;56.008;37.440;2023-05-10T08:15:13;3.30;;;1.60;;
65998;SDS011;52766;56.008;37.440;2023-05-10T08:17:51;4.07;;;1.42;;
65998;SDS011;52766;56.008;37.440;2023-05-10T08:20:18;3.67;;;1.55;;
65998;SDS011;52766;56.008;37.440;2023-05-10T08:22:50;5.05;;;1.77;;
65998;SDS011;52766;56.008;37.440;2023-05-10T08:25:20;8.48;;;2.30;;
65998;SDS011;52766;56.008;37.440;2023-05-10T08:27:50;5.78;;;1.85;;
65998;SDS011;52766;56.008;37.440;2023-05-10T08:30:27;11.50;;;2.15;;
65998;SDS011;52766;56.008;37.440;2023-05-10T08:32:59;5.15;;;1.90;;
65998;SDS011;52766;56.008;37.440;2023-05-10T08:35:33;7.00;;;1.80;;
65998;SDS011;52766;56.008;37.440;2023-05-10T08:38:07;5.05;;;2.08;;
65998;SDS011;52766;56.008;37.440;2023-05-10T08:40:37;4.07;;;1.77;;
65998;SDS011;52766;56.008;37.440;2023-05-10T08:43:20;5.00;;;2.20;;
65998;SDS011;52766;56.008;37.440;2023-05-10T08:45:56;4.47;;;2.00;;
65998;SDS011;52766;56.008;37.440;2023-05-10T08:48:31;5.82;;;1.77;;
65998;SDS011;52766;56.008;37.440;2023-05-10T08:51:03;3.33;;;1.45;;
65998;SDS011;52766;56.008;37.440;2023-05-10T08:53:33;4.85;;;1.63;;
65998;SDS011;52766;56.008;37.440;2023-05-10T08:56:11;4.80;;;1.85;;
65998;SDS011;52766;56.008;37.440;2023-05-10T09:01:43;4.18;;;1.60;;
65998;SDS011;52766;56.008;37.440;2023-05-10T09:04:20;5.57;;;1.92;;
65998;SDS011;52766;56.008;37.440;2023-05-10T09:06:58;6.47;;;1.92;;
65998;SDS011;52766;56.008;37.440;2023-05-10T09:09:24;3.72;;;1.65;;
65998;SDS011;52766;56.008;37.440;2023-05-10T09:11:58;8.15;;;2.35;;
65998;SDS011;52766;56.008;37.440;2023-05-10T09:17:07;6.78;;;2.33;;
65998;SDS011;52766;56.008;37.440;2023-05-10T09:19:42;4.05;;;1.60;;
65998;SDS011;52766;56.008;37.440;2023-05-10T09:22:13;2.83;;;1.60;;
65998;SDS011;52766;56.008;37.440;2023-05-10T09:24:42;5.80;;;1.80;;
65998;SDS011;52766;56.008;37.440;2023-05-10T09:27:49;6.93;;;2.50;;
65998;SDS011;52766;56.008;37.440;2023-05-10T09:30:55;5.85;;;1.95;;
65998;SDS011;52766;56.008;37.440;2023-05-10T09:33:43;5.43;;;1.95;;
65998;SDS011;52766;56.008;37.440;2023-05-10T09:36:20;6.60;;;1.40;;
65998;SDS011;52766;56.008;37.440;2023-05-10T09:38:54;4.95;;;1.48;;
65998;SDS011;52766;56.008;37.440;2023-05-10T09:41:27;5.25;;;1.67;;
65998;SDS011;52766;56.008;37.440;2023-05-10T09:44:04;3.53;;;1.70;;
65998;SDS011;52766;56.008;37.440;2023-05-10T09:46:37;4.30;;;2.05;;
65998;SDS011;52766;56.008;37.440;2023-05-10T09:49:14;3.22;;;1.52;;
65998;SDS011;52766;56.008;37.440;2023-05-10T09:52:02;3.72;;;1.40;;
65998;SDS011;52766;56.008;37.440;2023-05-10T09:57:22;3.92;;;1.65;;
65998;SDS011;52766;56.008;37.440;2023-05-10T09:59:59;7.20;;;2.40;;
65998;SDS011;52766;56.008;37.440;2023-05-10T10:02:47;6.88;;;1.83;;
65998;SDS011;52766;56.008;37.440;2023-05-10T10:05:51;4.95;;;1.70;;
65998;SDS011;52766;56.008;37.440;2023-05-10T10:08:25;3.30;;;1.40;;
65998;SDS011;52766;56.008;37.440;2023-05-10T10:10:54;4.32;;;1.55;;
65998;SDS011;52766;56.008;37.440;2023-05-10T10:13:31;3.95;;;1.58;;
65998;SDS011;52766;56.008;37.440;2023-05-10T10:16:08;4.15;;;1.42;;
65998;SDS011;52766;56.008;37.440;2023-05-10T10:18:48;4.97;;;1.75;;
65998;SDS011;52766;56.008;37.440;2023-05-10T10:21:20;4.07;;;1.90;;
65998;SDS011;52766;56.008;37.440;2023-05-10T10:24:15;3.45;;;1.60;;
65998;SDS011;52766;56.008;37.440;2023-05-10T10:26:48;5.53;;;1.80;;
65998;SDS011;52766;56.008;37.440;2023-05-10T10:29:26;3.65;;;1.25;;
65998;SDS011;52766;56.008;37.440;2023-05-10T10:32:20;4.45;;;1.65;;
65998;SDS011;52766;56.008;37.440;2023-05-10T10:34:53;3.22;;;1.30;;
65998;SDS011;52766;56.008;37.440;2023-05-10T10:37:21;4.50;;;1.50;;
65998;SDS011;52766;56.008;37.440;2023-05-10T10:39:49;2.47;;;1.40;;
65998;SDS011;52766;56.008;37.440;2023-05-10T10:42:43;4.78;;;1.67;;
65998;SDS011;52766;56.008;37.440;2023-05-10T10:45:19;2.45;;;1.45;;
65998;SDS011;52766;56.008;37.440;2023-05-10T10:47:48;3.53;;;1.60;;
65998;SDS011;52766;56.008;37.440;2023-05-10T10:50:46;4.25;;;1.80;;
65998;SDS011;52766;56.008;37.440;2023-05-10T10:53:19;29.38;;;5.45;;
65998;SDS011;52766;56.008;37.440;2023-05-10T10:56:11;4.30;;;1.85;;
65998;SDS011;52766;56.008;37.440;2023-05-10T10:58:48;5.60;;;1.80;;
65998;SDS011;52766;56.008;37.440;2023-05-10T11:01:20;3.88;;;1.52;;
65998;SDS011;52766;56.008;37.440;2023-05-10T11:10:05;4.55;;;1.90;;
65998;SDS011;52766;56.008;37.440;2023-05-10T11:16:43;3.38;;;1.90;;
65998;SDS011;52766;56.008;37.440;2023-05-10T11:22:11;3.13;;;1.83;;
65998;SDS011;52766;56.008;37.440;2023-05-10T11:25:03;7.30;;;2.20;;
65998;SDS011;52766;56.008;37.440;2023-05-10T11:27:35;4.47;;;1.52;;
65998;SDS011;52766;56.008;37.440;2023-05-10T11:30:06;3.45;;;1.50;;
65998;SDS011;52766;56.008;37.440;2023-05-10T11:32:50;2.90;;;1.55;;
65998;SDS011;52766;56.008;37.440;2023-05-10T11:35:22;3.95;;;1.70;;
65998;SDS011;52766;56.008;37.440;2023-05-10T11:38:01;5.45;;;2.20;;
65998;SDS011;52766;56.008;37.440;2023-05-10T11:40:41;6.82;;;2.55;;
65998;SDS011;52766;56.008;37.440;2023-05-10T11:43:52;6.88;;;2.55;;
65998;SDS011;52766;56.008;37.440;2023-05-10T11:49:30;5.55;;;1.58;;
65998;SDS011;52766;56.008;37.440;2023-05-10T11:52:06;4.05;;;1.65;;
65998;SDS011;52766;56.008;37.440;2023-05-10T12:04:03;6.10;;;2.03;;
65998;SDS011;52766;56.008;37.440;2023-05-10T12:07:01;4.45;;;1.88;;
65998;SDS011;52766;56.008;37.440;2023-05-10T12:10:25;3.58;;;1.50;;
65998;SDS011;52766;56.008;37.440;2023-05-10T12:12:41;3.45;;;1.90;;
65998;SDS011;52766;56.008;37.440;2023-05-10T12:15:19;5.72;;;2.10;;
65998;SDS011;52766;56.008;37.440;2023-05-10T12:18:10;4.32;;;1.55;;
65998;SDS011;52766;56.008;37.440;2023-05-10T12:20:53;3.35;;;1.80;;
65998;SDS011;52766;56.008;37.440;2023-05-10T12:23:50;4.10;;;1.70;;
65998;SDS011;52766;56.008;37.440;2023-05-10T12:26:27;4.28;;;2.25;;
65998;SDS011;52766;56.008;37.440;2023-05-10T12:29:12;3.03;;;1.80;;
65998;SDS011;52766;56.008;37.440;2023-05-10T12:31:55;4.00;;;1.50;;
65998;SDS011;52766;56.008;37.440;2023-05-10T12:34:38;5.90;;;1.75;;
65998;SDS011;52766;56.008;37.440;2023-05-10T12:37:07;4.60;;;1.83;;
65998;SDS011;52766;56.008;37.440;2023-05-10T12:40:08;7.47;;;2.80;;
65998;SDS011;52766;56.008;37.440;2023-05-10T12:42:50;5.03;;;1.98;;
65998;SDS011;52766;56.008;37.440;2023-05-10T12:45:43;4.13;;;2.17;;
65998;SDS011;52766;56.008;37.440;2023-05-10T12:48:53;4.68;;;1.80;;
65998;SDS011;52766;56.008;37.440;2023-05-10T12:51:27;10.38;;;2.17;;
65998;SDS011;52766;56.008;37.440;2023-05-10T12:54:20;5.10;;;1.92;;
65998;SDS011;52766;56.008;37.440;2023-05-10T12:57:02;4.38;;;2.17;;
65998;SDS011;52766;56.008;37.440;2023-05-10T13:03:15;6.05;;;1.40;;
65998;SDS011;52766;56.008;37.440;2023-05-10T13:06:08;9.82;;;2.60;;
65998;SDS011;52766;56.008;37.440;2023-05-10T13:08:45;3.30;;;1.77;;
65998;SDS011;52766;56.008;37.440;2023-05-10T13:11:41;4.15;;;1.83;;
65998;SDS011;52766;56.008;37.440;2023-05-10T13:14:15;4.97;;;2.17;;
65998;SDS011;52766;56.008;37.440;2023-05-10T13:16:53;6.72;;;2.53;;
65998;SDS011;52766;56.008;37.440;2023-05-10T13:19:19;4.20;;;1.90;;
65998;SDS011;52766;56.008;37.440;2023-05-10T13:21:48;5.90;;;2.20;;
65998;SDS011;52766;56.008;37.440;2023-05-10T13:24:16;4.65;;;2.10;;
65998;SDS011;52766;56.008;37.440;2023-05-10T13:26:51;5.65;;;2.70;;
65998;SDS011;52766;56.008;37.440;2023-05-10T13:29:27;5.95;;;2.15;;
65998;SDS011;52766;56.008;37.440;2023-05-10T13:31:58;6.50;;;2.00;;
65998;SDS011;52766;56.008;37.440;2023-05-10T13:34:35;8.10;;;2.33;;
65998;SDS011;52766;56.008;37.440;2023-05-10T13:42:47;4.70;;;2.72;;
65998;SDS011;52766;56.008;37.440;2023-05-10T13:48:40;3.35;;;1.90;;
65998;SDS011;52766;56.008;37.440;2023-05-10T13:51:11;7.88;;;2.83;;
65998;SDS011;52766;56.008;37.440;2023-05-10T13:53:40;6.00;;;2.65;;
65998;SDS011;52766;56.008;37.440;2023-05-10T13:57:36;5.75;;;2.55;;
65998;SDS011;52766;56.008;37.440;2023-05-10T14:15:45;6.43;;;1.90;;
65998;SDS011;52766;56.008;37.440;2023-05-10T14:18:44;3.90;;;2.10;;
65998;SDS011;52766;56.008;37.440;2023-05-10T14:21:42;7.78;;;2.30;;
65998;SDS011;52766;56.008;37.440;2023-05-10T14:24:22;10.07;;;4.20;;
65998;SDS011;52766;56.008;37.440;2023-05-10T14:27:26;4.72;;;1.83;;
65998;SDS011;52766;56.008;37.440;2023-05-10T14:30:17;7.63;;;2.55;;
65998;SDS011;52766;56.008;37.440;2023-05-10T14:33:53;6.55;;;2.20;;
65998;SDS011;52766;56.008;37.440;2023-05-10T14:37:05;5.88;;;2.22;;
65998;SDS011;52766;56.008;37.440;2023-05-10T14:39:45;7.13;;;1.98;;
65998;SDS011;52766;56.008;37.440;2023-05-10T14:49:31;4.35;;;2.05;;
65998;SDS011;52766;56.008;37.440;2023-05-10T14:55:19;7.53;;;2.60;;
65998;SDS011;52766;56.008;37.440;2023-05-10T14:58:41;4.57;;;2.05;;
65998;SDS011;52766;56.008;37.440;2023-05-10T15:02:20;10.68;;;2.75;;
65998;SDS011;52766;56.008;37.440;2023-05-10T15:08:14;12.50;;;5.28;;
65998;SDS011;52766;56.008;37.440;2023-05-10T15:11:22;8.00;;;3.78;;
65998;SDS011;52766;56.008;37.440;2023-05-10T15:13:48;9.50;;;2.50;;
65998;SDS011;52766;56.008;37.440;2023-05-10T15:16:20;6.78;;;1.95;;
65998;SDS011;52766;56.008;37.440;2023-05-10T15:18:53;6.93;;;2.45;;
65998;SDS011;52766;56.008;37.440;2023-05-10T15:21:25;5.60;;;2.08;;
65998;SDS011;52766;56.008;37.440;2023-05-10T15:23:55;8.63;;;2.97;;
65998;SDS011;52766;56.008;37.440;2023-05-10T15:27:06;6.10;;;2.95;;
65998;SDS011;52766;56.008;37.440;2023-05-10T15:29:47;10.88;;;4.03;;
65998;SDS011;52766;56.008;37.440;2023-05-10T15:32:42;14.85;;;5.63;;
65998;SDS011;52766;56.008;37.440;2023-05-10T15:35:27;24.27;;;11.45;;
65998;SDS011;52766;56.008;37.440;2023-05-10T15:38:38;6.55;;;2.83;;
65998;SDS011;52766;56.008;37.440;2023-05-10T15:41:23;7.43;;;3.05;;
65998;SDS011;52766;56.008;37.440;2023-05-10T15:44:07;9.55;;;3.05;;
65998;SDS011;52766;56.008;37.440;2023-05-10T15:49:07;14.07;;;3.30;;
65998;SDS011;52766;56.008;37.440;2023-05-10T15:51:37;9.63;;;2.65;;
65998;SDS011;52766;56.008;37.440;2023-05-10T15:54:13;8.70;;;3.20;;
65998;SDS011;52766;56.008;37.440;2023-05-10T15:57:05;21.70;;;4.30;;
65998;SDS011;52766;56.008;37.440;2023-05-10T16:02:46;11.77;;;3.38;;
65998;SDS011;52766;56.008;37.440;2023-05-10T16:05:35;15.45;;;6.63;;
65998;SDS011;52766;56.008;37.440;2023-05-10T16:08:29;12.60;;;4.38;;
65998;SDS011;52766;56.008;37.440;2023-05-10T16:14:02;13.23;;;6.60;;
65998;SDS011;52766;56.008;37.440;2023-05-10T16:16:34;6.50;;;2.75;;
65998;SDS011;52766;56.008;37.440;2023-05-10T16:19:08;8.27;;;3.35;;
65998;SDS011;52766;56.008;37.440;2023-05-10T16:21:59;7.85;;;3.45;;
65998;SDS011;52766;56.008;37.440;2023-05-10T16:24:31;15.27;;;6.00;;
65998;SDS011;52766;56.008;37.440;2023-05-10T16:27:01;13.55;;;5.38;;
65998;SDS011;52766;56.008;37.440;2023-05-10T16:29:31;12.77;;;5.78;;
65998;SDS011;52766;56.008;37.440;2023-05-10T16:35:12;10.98;;;3.55;;
65998;SDS011;52766;56.008;37.440;2023-05-10T16:37:38;7.55;;;3.67;;
65998;SDS011;52766;56.008;37.440;2023-05-10T16:41:21;6.47;;;3.15;;
65998;SDS011;52766;56.008;37.440;2023-05-10T16:43:53;8.82;;;3.13;;
65998;SDS011;52766;56.008;37.440;2023-05-10T16:46:38;9.43;;;2.65;;
65998;SDS011;52766;56.008;37.440;2023-05-10T16:49:42;12.52;;;4.55;;
65998;SDS011;52766;56.008;37.440;2023-05-10T16:52:10;11.55;;;5.88;;
65998;SDS011;52766;56.008;37.440;2023-05-10T16:54:51;11.00;;;5.60;;
65998;SDS011;52766;56.008;37.440;2023-05-10T17:01:07;7.20;;;4.45;;
65998;SDS011;52766;56.008;37.440;2023-05-10T17:10:20;13.13;;;4.75;;
65998;SDS011;52766;56.008;37.440;2023-05-10T17:13:16;19.45;;;6.40;;
65998;SDS011;52766;56.008;37.440;2023-05-10T17:16:03;21.88;;;5.53;;
65998;SDS011;52766;56.008;37.440;2023-05-10T17:18:39;21.42;;;5.40;;
65998;SDS011;52766;56.008;37.440;2023-05-10T17:24:16;27.83;;;7.82;;
65998;SDS011;52766;56.008;37.440;2023-05-10T17:36:06;16.35;;;4.95;;
65998;SDS011;52766;56.008;37.440;2023-05-10T17:48:58;75.95;;;36.05;;